sensor_id;sensor_type;location;lat;lon;timestamp;pressure;altitude;pressure_sealevel;temperature;humidity
7986;BME280;4038;42.612;23.066;2023-11-21T00:01:40;92834.75;;;18.84;nan
7986;BME280;4038;42.612;23.066;2023-11-21T00:04:05;92821.00;;;19.24;nan
7986;BME280;4038;42.612;23.066;2023-11-21T00:06:32;92796.88;;;19.42;nan
7986;BME280;4038;42.612;23.066;2023-11-21T00:09:01;92820.19;;;19.62;nan
7986;BME280;4038;42.612;23.066;2023-11-21T00:11:26;92819.16;;;17.33;nan
7986;BME280;4038;42.612;23.066;2023-11-21T00:13:51;92819.38;;;17.71;nan
7986;BME280;4038;42.612;23.066;2023-11-21T00:16:17;92819.75;;;17.39;nan
7986;BME280;4038;42.612;23.066;2023-11-21T00:18:42;92832.53;;;19.13;nan
7986;BME280;4038;42.612;23.066;2023-11-21T00:21:08;92844.16;;;19.42;nan
7986;BME280;4038;42.612;23.066;2023-11-21T00:23:34;92833.78;;;19.98;nan
7986;BME280;4038;42.612;23.066;2023-11-21T00:26:00;92834.75;;;20.25;nan
7986;BME280;4038;42.612;23.066;2023-11-21T00:28:26;92835.47;;;20.33;nan
7986;BME280;4038;42.612;23.066;2023-11-21T00:30:51;92841.44;;;20.30;nan
7986;BME280;4038;42.612;23.066;2023-11-21T00:33:17;92845.44;;;19.48;nan
7986;BME280;4038;42.612;23.066;2023-11-21T00:35:42;92848.72;;;19.77;nan
7986;BME280;4038;42.612;23.066;2023-11-21T00:38:08;92849.72;;;19.49;nan
7986;BME280;4038;42.612;23.066;2023-11-21T00:40:34;92852.38;;;18.94;nan
7986;BME280;4038;42.612;23.066;2023-11-21T00:42:59;92835.41;;;17.65;nan
7986;BME280;4038;42.612;23.066;2023-11-21T00:45:24;92835.31;;;18.75;nan
7986;BME280;4038;42.612;23.066;2023-11-21T00:47:51;92841.19;;;19.25;nan
7986;BME280;4038;42.612;23.066;2023-11-21T00:50:16;92834.25;;;19.71;nan
7986;BME280;4038;42.612;23.066;2023-11-21T00:52:41;92832.66;;;20.01;nan
7986;BME280;4038;42.612;23.066;2023-11-21T00:55:07;92833.53;;;19.63;nan
7986;BME280;4038;42.612;23.066;2023-11-21T00:57:34;92827.72;;;18.76;nan
7986;BME280;4038;42.612;23.066;2023-11-21T00:59:59;92819.28;;;18.07;nan
7986;BME280;4038;42.612;23.066;2023-11-21T01:02:25;92801.69;;;17.53;nan
7986;BME280;4038;42.612;23.066;2023-11-21T01:04:51;92809.72;;;17.00;nan
7986;BME280;4038;42.612;23.066;2023-11-21T01:07:16;92813.16;;;16.65;nan
7986;BME280;4038;42.612;23.066;2023-11-21T01:09:42;92813.69;;;16.42;nan
7986;BME280;4038;42.612;23.066;2023-11-21T01:12:09;92814.78;;;17.09;nan
7986;BME280;4038;42.612;23.066;2023-11-21T01:14:35;92821.53;;;17.01;nan
7986;BME280;4038;42.612;23.066;2023-11-21T01:17:02;92813.88;;;17.94;nan
7986;BME280;4038;42.612;23.066;2023-11-21T01:19:29;92824.75;;;18.96;nan
7986;BME280;4038;42.612;23.066;2023-11-21T01:21:54;92822.47;;;19.33;nan
7986;BME280;4038;42.612;23.066;2023-11-21T01:24:20;92827.97;;;19.63;nan
7986;BME280;4038;42.612;23.066;2023-11-21T01:26:45;92829.41;;;19.79;nan
7986;BME280;4038;42.612;23.066;2023-11-21T01:29:12;92823.72;;;20.10;nan
7986;BME280;4038;42.612;23.066;2023-11-21T01:31:37;92816.94;;;20.28;nan
7986;BME280;4038;42.612;23.066;2023-11-21T01:34:02;92823.31;;;20.13;nan
7986;BME280;4038;42.612;23.066;2023-11-21T01:36:32;92828.09;;;21.27;nan
7986;BME280;4038;42.612;23.066;2023-11-21T01:38:57;92819.03;;;18.94;nan
7986;BME280;4038;42.612;23.066;2023-11-21T01:41:27;92814.38;;;18.97;nan
7986;BME280;4038;42.612;23.066;2023-11-21T01:43:54;92813.94;;;18.24;nan
7986;BME280;4038;42.612;23.066;2023-11-21T01:46:20;92803.91;;;19.43;nan
7986;BME280;4038;42.612;23.066;2023-11-21T01:48:48;92798.28;;;19.73;nan
7986;BME280;4038;42.612;23.066;2023-11-21T01:51:14;92793.19;;;18.10;nan
7986;BME280;4038;42.612;23.066;2023-11-21T01:53:40;92799.16;;;18.14;nan
7986;BME280;4038;42.612;23.066;2023-11-21T01:56:06;92803.25;;;19.04;nan
7986;BME280;4038;42.612;23.066;2023-11-21T01:58:33;92806.50;;;18.04;nan
7986;BME280;4038;42.612;23.066;2023-11-21T02:00:59;92810.25;;;18.22;nan
7986;BME280;4038;42.612;23.066;2023-11-21T02:03:24;92811.56;;;19.27;nan
7986;BME280;4038;42.612;23.066;2023-11-21T02:05:52;92805.50;;;18.98;nan
7986;BME280;4038;42.612;23.066;2023-11-21T02:08:18;92807.50;;;18.45;nan
7986;BME280;4038;42.612;23.066;2023-11-21T02:10:45;92808.06;;;17.33;nan
7986;BME280;4038;42.612;23.066;2023-11-21T02:13:10;92813.59;;;18.20;nan
7986;BME280;4038;42.612;23.066;2023-11-21T02:15:39;92805.69;;;19.00;nan
7986;BME280;4038;42.612;23.066;2023-11-21T02:18:05;92807.66;;;18.31;nan
7986;BME280;4038;42.612;23.066;2023-11-21T02:20:34;92816.59;;;18.60;nan
7986;BME280;4038;42.612;23.066;2023-11-21T02:23:02;92805.69;;;18.70;nan
7986;BME280;4038;42.612;23.066;2023-11-21T02:25:29;92799.75;;;18.96;nan
7986;BME280;4038;42.612;23.066;2023-11-21T02:27:55;92804.34;;;17.67;nan
7986;BME280;4038;42.612;23.066;2023-11-21T02:30:21;92802.00;;;17.71;nan
7986;BME280;4038;42.612;23.066;2023-11-21T02:32:53;92801.81;;;18.58;nan
7986;BME280;4038;42.612;23.066;2023-11-21T02:35:22;92800.63;;;18.15;nan
7986;BME280;4038;42.612;23.066;2023-11-21T02:37:48;92793.34;;;19.41;nan
7986;BME280;4038;42.612;23.066;2023-11-21T02:40:13;92792.00;;;18.72;nan
7986;BME280;4038;42.612;23.066;2023-11-21T02:42:43;92801.94;;;18.29;nan
7986;BME280;4038;42.612;23.066;2023-11-21T02:45:09;92799.91;;;19.14;nan
7986;BME280;4038;42.612;23.066;2023-11-21T02:47:38;92798.38;;;19.51;nan
7986;BME280;4038;42.612;23.066;2023-11-21T02:50:04;92797.47;;;19.88;nan
7986;BME280;4038;42.612;23.066;2023-11-21T02:52:31;92788.88;;;19.54;nan
7986;BME280;4038;42.612;23.066;2023-11-21T02:54:58;92785.28;;;19.76;nan
7986;BME280;4038;42.612;23.066;2023-11-21T02:57:23;92782.53;;;20.08;nan
7986;BME280;4038;42.612;23.066;2023-11-21T02:59:49;92782.91;;;18.87;nan
7986;BME280;4038;42.612;23.066;2023-11-21T03:02:15;92788.41;;;19.09;nan
7986;BME280;4038;42.612;23.066;2023-11-21T03:04:41;92780.31;;;18.81;nan
7986;BME280;4038;42.612;23.066;2023-11-21T03:07:08;92793.25;;;19.79;nan
7986;BME280;4038;42.612;23.066;2023-11-21T03:09:34;92798.03;;;19.86;nan
7986;BME280;4038;42.612;23.066;2023-11-21T03:12:00;92794.97;;;20.40;nan
7986;BME280;4038;42.612;23.066;2023-11-21T03:14:25;92795.38;;;19.96;nan
7986;BME280;4038;42.612;23.066;2023-11-21T03:16:51;92800.63;;;19.84;nan
7986;BME280;4038;42.612;23.066;2023-11-21T03:19:16;92805.00;;;19.55;nan
7986;BME280;4038;42.612;23.066;2023-11-21T03:21:42;92810.38;;;19.53;nan
7986;BME280;4038;42.612;23.066;2023-11-21T03:24:08;92813.19;;;19.38;nan
7986;BME280;4038;42.612;23.066;2023-11-21T03:26:33;92818.72;;;19.53;nan
7986;BME280;4038;42.612;23.066;2023-11-21T03:28:59;92803.75;;;17.61;nan
7986;BME280;4038;42.612;23.066;2023-11-21T03:31:24;92802.38;;;18.64;nan
7986;BME280;4038;42.612;23.066;2023-11-21T03:33:50;92788.09;;;18.90;nan
7986;BME280;4038;42.612;23.066;2023-11-21T03:36:15;92791.38;;;19.19;nan
7986;BME280;4038;42.612;23.066;2023-11-21T03:38:41;92787.03;;;19.56;nan
7986;BME280;4038;42.612;23.066;2023-11-21T03:41:07;92784.72;;;16.64;nan
7986;BME280;4038;42.612;23.066;2023-11-21T03:43:35;92791.97;;;15.84;nan
7986;BME280;4038;42.612;23.066;2023-11-21T03:46:01;92780.38;;;15.26;nan
7986;BME280;4038;42.612;23.066;2023-11-21T03:48:27;92779.63;;;16.06;nan
7986;BME280;4038;42.612;23.066;2023-11-21T03:50:52;92771.34;;;16.06;nan
7986;BME280;4038;42.612;23.066;2023-11-21T03:53:17;92766.81;;;14.88;nan
7986;BME280;4038;42.612;23.066;2023-11-21T03:55:43;92754.72;;;14.52;nan
7986;BME280;4038;42.612;23.066;2023-11-21T03:58:08;92762.72;;;14.36;nan
7986;BME280;4038;42.612;23.066;2023-11-21T04:00:34;92772.59;;;15.37;nan
7986;BME280;4038;42.612;23.066;2023-11-21T04:02:59;92771.94;;;17.54;nan
7986;BME280;4038;42.612;23.066;2023-11-21T04:05:24;92766.44;;;17.62;nan
7986;BME280;4038;42.612;23.066;2023-11-21T04:07:50;92769.56;;;18.40;nan
7986;BME280;4038;42.612;23.066;2023-11-21T04:10:19;92770.53;;;18.65;nan
7986;BME280;4038;42.612;23.066;2023-11-21T04:12:44;92765.75;;;17.69;nan
7986;BME280;4038;42.612;23.066;2023-11-21T04:15:11;92767.78;;;17.76;nan
7986;BME280;4038;42.612;23.066;2023-11-21T04:17:37;92766.56;;;19.14;nan
7986;BME280;4038;42.612;23.066;2023-11-21T04:20:04;92759.22;;;19.88;nan
7986;BME280;4038;42.612;23.066;2023-11-21T04:22:35;92761.47;;;19.90;nan
7986;BME280;4038;42.612;23.066;2023-11-21T04:25:01;92761.81;;;19.54;nan
7986;BME280;4038;42.612;23.066;2023-11-21T04:27:27;92770.69;;;19.60;nan
7986;BME280;4038;42.612;23.066;2023-11-21T04:29:52;92759.50;;;20.08;nan
7986;BME280;4038;42.612;23.066;2023-11-21T04:32:17;92756.91;;;20.42;nan
7986;BME280;4038;42.612;23.066;2023-11-21T04:34:43;92756.47;;;19.48;nan
7986;BME280;4038;42.612;23.066;2023-11-21T04:37:08;92750.81;;;19.71;nan
7986;BME280;4038;42.612;23.066;2023-11-21T04:39:35;92759.00;;;20.26;nan
7986;BME280;4038;42.612;23.066;2023-11-21T04:42:01;92757.34;;;18.43;nan
7986;BME280;4038;42.612;23.066;2023-11-21T04:44:26;92759.50;;;17.91;nan
7986;BME280;4038;42.612;23.066;2023-11-21T04:46:51;92755.41;;;19.29;nan
7986;BME280;4038;42.612;23.066;2023-11-21T04:49:17;92762.75;;;18.56;nan
7986;BME280;4038;42.612;23.066;2023-11-21T04:51:42;92772.72;;;18.36;nan
7986;BME280;4038;42.612;23.066;2023-11-21T04:54:08;92776.56;;;18.18;nan
7986;BME280;4038;42.612;23.066;2023-11-21T04:56:33;92768.81;;;18.47;nan
7986;BME280;4038;42.612;23.066;2023-11-21T04:58:58;92761.84;;;19.39;nan
7986;BME280;4038;42.612;23.066;2023-11-21T05:01:24;92769.56;;;19.00;nan
7986;BME280;4038;42.612;23.066;2023-11-21T05:03:49;92772.38;;;18.70;nan
7986;BME280;4038;42.612;23.066;2023-11-21T05:06:17;92761.84;;;20.51;nan
7986;BME280;4038;42.612;23.066;2023-11-21T05:08:43;92776.91;;;19.21;nan
7986;BME280;4038;42.612;23.066;2023-11-21T05:11:08;92777.69;;;18.22;nan
7986;BME280;4038;42.612;23.066;2023-11-21T05:13:36;92766.84;;;17.73;nan
7986;BME280;4038;42.612;23.066;2023-11-21T05:16:02;92768.13;;;17.21;nan
7986;BME280;4038;42.612;23.066;2023-11-21T05:18:29;92775.06;;;17.07;nan
7986;BME280;4038;42.612;23.066;2023-11-21T05:20:55;92775.47;;;17.18;nan
7986;BME280;4038;42.612;23.066;2023-11-21T05:23:21;92770.66;;;16.34;nan
7986;BME280;4038;42.612;23.066;2023-11-21T05:25:46;92778.31;;;16.98;nan
7986;BME280;4038;42.612;23.066;2023-11-21T05:28:12;92788.41;;;17.60;nan
7986;BME280;4038;42.612;23.066;2023-11-21T05:30:38;92789.06;;;17.81;nan
7986;BME280;4038;42.612;23.066;2023-11-21T05:33:06;92791.78;;;17.66;nan
7986;BME280;4038;42.612;23.066;2023-11-21T05:35:32;92795.81;;;18.23;nan
7986;BME280;4038;42.612;23.066;2023-11-21T05:37:57;92788.09;;;19.68;nan
7986;BME280;4038;42.612;23.066;2023-11-21T05:40:22;92789.16;;;20.13;nan
7986;BME280;4038;42.612;23.066;2023-11-21T05:42:48;92779.84;;;20.18;nan
7986;BME280;4038;42.612;23.066;2023-11-21T05:45:14;92780.63;;;18.09;nan
7986;BME280;4038;42.612;23.066;2023-11-21T05:47:42;92780.50;;;16.92;nan
7986;BME280;4038;42.612;23.066;2023-11-21T05:50:08;92784.88;;;16.38;nan
7986;BME280;4038;42.612;23.066;2023-11-21T05:52:41;92786.88;;;16.58;nan
7986;BME280;4038;42.612;23.066;2023-11-21T05:55:07;92776.94;;;17.12;nan
7986;BME280;4038;42.612;23.066;2023-11-21T05:57:40;92781.31;;;17.36;nan
7986;BME280;4038;42.612;23.066;2023-11-21T06:00:07;92779.63;;;17.33;nan
7986;BME280;4038;42.612;23.066;2023-11-21T06:02:40;92774.63;;;19.42;nan
7986;BME280;4038;42.612;23.066;2023-11-21T06:05:07;92784.16;;;19.16;nan
7986;BME280;4038;42.612;23.066;2023-11-21T06:07:32;92781.91;;;19.30;nan
7986;BME280;4038;42.612;23.066;2023-11-21T06:09:58;92779.25;;;19.47;nan
7986;BME280;4038;42.612;23.066;2023-11-21T06:12:23;92782.53;;;19.68;nan
7986;BME280;4038;42.612;23.066;2023-11-21T06:14:49;92789.22;;;18.72;nan
7986;BME280;4038;42.612;23.066;2023-11-21T06:17:14;92789.81;;;19.56;nan
7986;BME280;4038;42.612;23.066;2023-11-21T06:19:40;92793.63;;;18.90;nan
7986;BME280;4038;42.612;23.066;2023-11-21T06:22:05;92791.53;;;19.29;nan
7986;BME280;4038;42.612;23.066;2023-11-21T06:24:31;92793.66;;;18.75;nan
7986;BME280;4038;42.612;23.066;2023-11-21T06:26:56;92793.00;;;19.93;nan
7986;BME280;4038;42.612;23.066;2023-11-21T06:29:22;92800.69;;;18.76;nan
7986;BME280;4038;42.612;23.066;2023-11-21T06:31:47;92806.63;;;18.57;nan
7986;BME280;4038;42.612;23.066;2023-11-21T06:34:13;92799.53;;;19.02;nan
7986;BME280;4038;42.612;23.066;2023-11-21T06:36:39;92798.22;;;19.26;nan
7986;BME280;4038;42.612;23.066;2023-11-21T06:39:04;92816.56;;;18.38;nan
7986;BME280;4038;42.612;23.066;2023-11-21T06:41:34;92808.75;;;20.30;nan
7986;BME280;4038;42.612;23.066;2023-11-21T06:43:59;92815.63;;;19.34;nan
7986;BME280;4038;42.612;23.066;2023-11-21T06:46:25;92814.72;;;18.32;nan
7986;BME280;4038;42.612;23.066;2023-11-21T06:48:50;92814.72;;;18.48;nan
7986;BME280;4038;42.612;23.066;2023-11-21T06:51:16;92817.72;;;19.81;nan
7986;BME280;4038;42.612;23.066;2023-11-21T06:53:41;92803.34;;;20.32;nan
7986;BME280;4038;42.612;23.066;2023-11-21T06:56:19;92820.75;;;21.15;nan
7986;BME280;4038;42.612;23.066;2023-11-21T06:58:45;92817.28;;;21.66;nan
7986;BME280;4038;42.612;23.066;2023-11-21T07:01:14;92805.91;;;20.05;nan
7986;BME280;4038;42.612;23.066;2023-11-21T07:03:40;92812.16;;;19.81;nan
7986;BME280;4038;42.612;23.066;2023-11-21T07:06:07;92812.91;;;20.14;nan
7986;BME280;4038;42.612;23.066;2023-11-21T07:08:33;92808.13;;;20.07;nan
7986;BME280;4038;42.612;23.066;2023-11-21T07:11:01;92815.44;;;20.27;nan
7986;BME280;4038;42.612;23.066;2023-11-21T07:13:28;92808.81;;;20.97;nan
7986;BME280;4038;42.612;23.066;2023-11-21T07:15:53;92803.97;;;20.80;nan
7986;BME280;4038;42.612;23.066;2023-11-21T07:18:19;92810.06;;;21.80;nan
7986;BME280;4038;42.612;23.066;2023-11-21T07:20:44;92809.88;;;22.66;nan
7986;BME280;4038;42.612;23.066;2023-11-21T07:23:10;92804.38;;;21.88;nan
7986;BME280;4038;42.612;23.066;2023-11-21T07:25:35;92810.53;;;20.92;nan
7986;BME280;4038;42.612;23.066;2023-11-21T07:28:01;92805.03;;;20.35;nan
7986;BME280;4038;42.612;23.066;2023-11-21T07:30:26;92810.31;;;20.98;nan
7986;BME280;4038;42.612;23.066;2023-11-21T07:32:52;92812.84;;;21.63;nan
7986;BME280;4038;42.612;23.066;2023-11-21T07:35:18;92812.91;;;19.74;nan
7986;BME280;4038;42.612;23.066;2023-11-21T07:37:43;92820.63;;;20.88;nan
7986;BME280;4038;42.612;23.066;2023-11-21T07:40:09;92812.03;;;22.58;nan
7986;BME280;4038;42.612;23.066;2023-11-21T07:42:37;92817.63;;;22.58;nan
7986;BME280;4038;42.612;23.066;2023-11-21T07:45:03;92809.88;;;21.78;nan
7986;BME280;4038;42.612;23.066;2023-11-21T07:47:29;92812.63;;;22.83;nan
7986;BME280;4038;42.612;23.066;2023-11-21T07:49:54;92805.66;;;22.48;nan
7986;BME280;4038;42.612;23.066;2023-11-21T07:52:22;92805.44;;;22.90;nan
7986;BME280;4038;42.612;23.066;2023-11-21T07:54:47;92791.66;;;21.77;nan
7986;BME280;4038;42.612;23.066;2023-11-21T07:57:12;92797.59;;;21.81;nan
7986;BME280;4038;42.612;23.066;2023-11-21T07:59:42;92797.03;;;22.90;nan
7986;BME280;4038;42.612;23.066;2023-11-21T08:02:07;92795.09;;;22.56;nan
7986;BME280;4038;42.612;23.066;2023-11-21T08:04:33;92798.50;;;22.54;nan
7986;BME280;4038;42.612;23.066;2023-11-21T08:06:59;92794.22;;;22.53;nan
7986;BME280;4038;42.612;23.066;2023-11-21T08:09:24;92794.28;;;21.92;nan
7986;BME280;4038;42.612;23.066;2023-11-21T08:11:50;92797.50;;;21.20;nan
7986;BME280;4038;42.612;23.066;2023-11-21T08:14:17;92795.38;;;22.24;nan
7986;BME280;4038;42.612;23.066;2023-11-21T08:16:42;92799.16;;;20.98;nan
7986;BME280;4038;42.612;23.066;2023-11-21T08:19:08;92792.31;;;20.49;nan
7986;BME280;4038;42.612;23.066;2023-11-21T08:21:34;92799.41;;;19.70;nan
7986;BME280;4038;42.612;23.066;2023-11-21T08:24:02;92792.81;;;20.80;nan
7986;BME280;4038;42.612;23.066;2023-11-21T08:26:29;92787.34;;;21.49;nan
7986;BME280;4038;42.612;23.066;2023-11-21T08:28:55;92785.84;;;21.65;nan
7986;BME280;4038;42.612;23.066;2023-11-21T08:31:28;92786.50;;;23.27;nan
7986;BME280;4038;42.612;23.066;2023-11-21T08:33:54;92788.31;;;22.76;nan
7986;BME280;4038;42.612;23.066;2023-11-21T08:36:23;92785.31;;;23.20;nan
7986;BME280;4038;42.612;23.066;2023-11-21T08:38:49;92780.41;;;22.92;nan
7986;BME280;4038;42.612;23.066;2023-11-21T08:41:17;92774.94;;;21.42;nan
7986;BME280;4038;42.612;23.066;2023-11-21T08:43:42;92769.72;;;21.04;nan
7986;BME280;4038;42.612;23.066;2023-11-21T08:46:08;92762.06;;;20.71;nan
7986;BME280;4038;42.612;23.066;2023-11-21T08:48:36;92757.81;;;21.90;nan
7986;BME280;4038;42.612;23.066;2023-11-21T08:51:03;92751.66;;;23.57;nan
7986;BME280;4038;42.612;23.066;2023-11-21T08:53:29;92742.03;;;23.02;nan
7986;BME280;4038;42.612;23.066;2023-11-21T08:55:56;92741.34;;;23.79;nan
7986;BME280;4038;42.612;23.066;2023-11-21T08:58:21;92743.13;;;23.64;nan
7986;BME280;4038;42.612;23.066;2023-11-21T09:00:47;92734.78;;;24.34;nan
7986;BME280;4038;42.612;23.066;2023-11-21T09:03:13;92733.94;;;24.12;nan
7986;BME280;4038;42.612;23.066;2023-11-21T09:08:06;92721.38;;;22.42;nan
7986;BME280;4038;42.612;23.066;2023-11-21T09:10:34;92708.66;;;23.62;nan
7986;BME280;4038;42.612;23.066;2023-11-21T09:13:04;92694.91;;;23.85;nan
7986;BME280;4038;42.612;23.066;2023-11-21T09:15:30;92694.94;;;24.97;nan
7986;BME280;4038;42.612;23.066;2023-11-21T09:17:55;92685.50;;;26.46;nan
7986;BME280;4038;42.612;23.066;2023-11-21T09:20:21;92677.31;;;27.08;nan
7986;BME280;4038;42.612;23.066;2023-11-21T09:22:49;92676.59;;;26.96;nan
7986;BME280;4038;42.612;23.066;2023-11-21T09:25:14;92666.84;;;25.28;nan
7986;BME280;4038;42.612;23.066;2023-11-21T09:27:40;92661.88;;;23.93;nan
7986;BME280;4038;42.612;23.066;2023-11-21T09:30:06;92660.38;;;24.02;nan
7986;BME280;4038;42.612;23.066;2023-11-21T09:32:35;92651.34;;;25.93;nan
7986;BME280;4038;42.612;23.066;2023-11-21T09:35:02;92641.13;;;26.67;nan
7986;BME280;4038;42.612;23.066;2023-11-21T09:37:27;92642.72;;;26.47;nan
7986;BME280;4038;42.612;23.066;2023-11-21T09:39:53;92635.84;;;27.96;nan
7986;BME280;4038;42.612;23.066;2023-11-21T09:42:23;92634.28;;;30.30;nan
7986;BME280;4038;42.612;23.066;2023-11-21T09:47:24;92638.34;;;28.15;nan
7986;BME280;4038;42.612;23.066;2023-11-21T09:49:49;92640.13;;;27.97;nan
7986;BME280;4038;42.612;23.066;2023-11-21T09:52:26;92629.94;;;28.70;nan
7986;BME280;4038;42.612;23.066;2023-11-21T09:54:52;92629.66;;;25.72;nan
7986;BME280;4038;42.612;23.066;2023-11-21T09:57:22;92619.28;;;28.41;nan
7986;BME280;4038;42.612;23.066;2023-11-21T09:59:54;92630.38;;;27.24;nan
7986;BME280;4038;42.612;23.066;2023-11-21T10:02:27;92623.47;;;27.76;nan
7986;BME280;4038;42.612;23.066;2023-11-21T10:04:59;92608.81;;;28.16;nan
7986;BME280;4038;42.612;23.066;2023-11-21T10:07:26;92613.00;;;28.70;nan
7986;BME280;4038;42.612;23.066;2023-11-21T10:09:52;92610.53;;;29.33;nan
7986;BME280;4038;42.612;23.066;2023-11-21T10:12:18;92608.59;;;27.25;nan
7986;BME280;4038;42.612;23.066;2023-11-21T10:14:48;92596.06;;;29.25;nan
7986;BME280;4038;42.612;23.066;2023-11-21T10:17:14;92603.47;;;27.83;nan
7986;BME280;4038;42.612;23.066;2023-11-21T10:19:46;92593.81;;;28.53;nan
7986;BME280;4038;42.612;23.066;2023-11-21T10:22:12;92587.94;;;28.35;nan
7986;BME280;4038;42.612;23.066;2023-11-21T10:24:38;92584.94;;;28.06;nan
7986;BME280;4038;42.612;23.066;2023-11-21T10:27:04;92582.50;;;25.59;nan
7986;BME280;4038;42.612;23.066;2023-11-21T10:29:30;92588.53;;;25.44;nan
7986;BME280;4038;42.612;23.066;2023-11-21T10:31:55;92591.28;;;26.56;nan
7986;BME280;4038;42.612;23.066;2023-11-21T10:34:24;92582.78;;;26.79;nan
7986;BME280;4038;42.612;23.066;2023-11-21T10:36:50;92580.69;;;26.80;nan
7986;BME280;4038;42.612;23.066;2023-11-21T10:39:21;92575.72;;;28.99;nan
7986;BME280;4038;42.612;23.066;2023-11-21T10:41:49;92575.59;;;27.76;nan
7986;BME280;4038;42.612;23.066;2023-11-21T10:44:19;92571.22;;;28.94;nan
7986;BME280;4038;42.612;23.066;2023-11-21T10:46:53;92580.13;;;28.88;nan
7986;BME280;4038;42.612;23.066;2023-11-21T10:49:24;92576.16;;;28.80;nan
7986;BME280;4038;42.612;23.066;2023-11-21T10:51:50;92573.50;;;24.42;nan
7986;BME280;4038;42.612;23.066;2023-11-21T10:54:22;92564.00;;;27.70;nan
7986;BME280;4038;42.612;23.066;2023-11-21T10:56:56;92550.53;;;29.62;nan
7986;BME280;4038;42.612;23.066;2023-11-21T10:59:23;92566.09;;;27.83;nan
7986;BME280;4038;42.612;23.066;2023-11-21T11:01:50;92556.13;;;29.17;nan
7986;BME280;4038;42.612;23.066;2023-11-21T11:04:22;92552.94;;;28.26;nan
7986;BME280;4038;42.612;23.066;2023-11-21T11:06:54;92551.78;;;23.60;nan
7986;BME280;4038;42.612;23.066;2023-11-21T11:09:21;92546.50;;;23.45;nan
7986;BME280;4038;42.612;23.066;2023-11-21T11:11:47;92544.84;;;21.61;nan
7986;BME280;4038;42.612;23.066;2023-11-21T11:14:14;92545.66;;;23.23;nan
7986;BME280;4038;42.612;23.066;2023-11-21T11:16:40;92540.25;;;24.06;nan
7986;BME280;4038;42.612;23.066;2023-11-21T11:19:07;92539.47;;;24.36;nan
7986;BME280;4038;42.612;23.066;2023-11-21T11:21:43;92528.88;;;24.99;nan
7986;BME280;4038;42.612;23.066;2023-11-21T11:27:30;92540.56;;;24.31;nan
7986;BME280;4038;42.612;23.066;2023-11-21T11:30:10;92557.13;;;23.87;nan
7986;BME280;4038;42.612;23.066;2023-11-21T11:32:55;92546.28;;;22.92;nan
7986;BME280;4038;42.612;23.066;2023-11-21T11:37:54;92542.38;;;23.46;nan
7986;BME280;4038;42.612;23.066;2023-11-21T11:40:19;92535.28;;;22.75;nan
7986;BME280;4038;42.612;23.066;2023-11-21T11:43:01;92519.34;;;24.71;nan
7986;BME280;4038;42.612;23.066;2023-11-21T11:45:34;92520.38;;;23.11;nan
7986;BME280;4038;42.612;23.066;2023-11-21T11:48:01;92524.44;;;24.10;nan
7986;BME280;4038;42.612;23.066;2023-11-21T11:50:28;92539.31;;;22.26;nan
7986;BME280;4038;42.612;23.066;2023-11-21T11:52:54;92534.94;;;21.87;nan
7986;BME280;4038;42.612;23.066;2023-11-21T11:55:23;92534.47;;;22.27;nan
7986;BME280;4038;42.612;23.066;2023-11-21T11:57:51;92537.50;;;21.12;nan
7986;BME280;4038;42.612;23.066;2023-11-21T12:00:17;92539.00;;;21.76;nan
7986;BME280;4038;42.612;23.066;2023-11-21T12:02:54;92539.91;;;22.34;nan
7986;BME280;4038;42.612;23.066;2023-11-21T12:05:22;92533.06;;;22.83;nan
7986;BME280;4038;42.612;23.066;2023-11-21T12:07:51;92530.41;;;21.45;nan
7986;BME280;4038;42.612;23.066;2023-11-21T12:10:29;92515.16;;;23.27;nan
7986;BME280;4038;42.612;23.066;2023-11-21T12:15:22;92508.91;;;22.11;nan
7986;BME280;4038;42.612;23.066;2023-11-21T12:17:48;92507.59;;;23.89;nan
7986;BME280;4038;42.612;23.066;2023-11-21T12:20:16;92509.38;;;23.85;nan
7986;BME280;4038;42.612;23.066;2023-11-21T12:22:51;92509.47;;;24.70;nan
7986;BME280;4038;42.612;23.066;2023-11-21T12:25:37;92512.47;;;26.31;nan
7986;BME280;4038;42.612;23.066;2023-11-21T12:28:04;92510.47;;;23.20;nan
7986;BME280;4038;42.612;23.066;2023-11-21T12:30:36;92503.75;;;26.99;nan
7986;BME280;4038;42.612;23.066;2023-11-21T12:33:03;92500.75;;;25.88;nan
7986;BME280;4038;42.612;23.066;2023-11-21T12:35:33;92488.34;;;24.90;nan
7986;BME280;4038;42.612;23.066;2023-11-21T12:37:59;92483.72;;;24.40;nan
7986;BME280;4038;42.612;23.066;2023-11-21T12:40:27;92483.31;;;24.13;nan
7986;BME280;4038;42.612;23.066;2023-11-21T12:42:55;92481.59;;;24.29;nan
7986;BME280;4038;42.612;23.066;2023-11-21T12:45:26;92479.00;;;25.88;nan
7986;BME280;4038;42.612;23.066;2023-11-21T12:48:05;92472.34;;;24.60;nan
7986;BME280;4038;42.612;23.066;2023-11-21T12:50:37;92470.28;;;23.96;nan
7986;BME280;4038;42.612;23.066;2023-11-21T12:53:05;92470.53;;;23.48;nan
7986;BME280;4038;42.612;23.066;2023-11-21T12:55:35;92454.19;;;23.35;nan
7986;BME280;4038;42.612;23.066;2023-11-21T12:58:08;92450.75;;;24.29;nan
7986;BME280;4038;42.612;23.066;2023-11-21T13:00:37;92450.97;;;22.69;nan
7986;BME280;4038;42.612;23.066;2023-11-21T13:03:05;92458.69;;;24.11;nan
7986;BME280;4038;42.612;23.066;2023-11-21T13:05:35;92455.13;;;24.75;nan
7986;BME280;4038;42.612;23.066;2023-11-21T13:08:04;92456.72;;;22.52;nan
7986;BME280;4038;42.612;23.066;2023-11-21T13:10:33;92460.63;;;23.78;nan
7986;BME280;4038;42.612;23.066;2023-11-21T13:13:02;92453.13;;;23.50;nan
7986;BME280;4038;42.612;23.066;2023-11-21T13:15:31;92448.16;;;24.43;nan
7986;BME280;4038;42.612;23.066;2023-11-21T13:17:58;92457.25;;;25.54;nan
7986;BME280;4038;42.612;23.066;2023-11-21T13:20:25;92457.91;;;25.08;nan
7986;BME280;4038;42.612;23.066;2023-11-21T13:25:21;92459.91;;;25.52;nan
7986;BME280;4038;42.612;23.066;2023-11-21T13:27:47;92440.22;;;24.72;nan
7986;BME280;4038;42.612;23.066;2023-11-21T13:30:16;92435.00;;;25.23;nan
7986;BME280;4038;42.612;23.066;2023-11-21T13:32:43;92435.91;;;24.60;nan
7986;BME280;4038;42.612;23.066;2023-11-21T13:35:10;92438.53;;;25.23;nan
7986;BME280;4038;42.612;23.066;2023-11-21T13:37:47;92441.91;;;25.66;nan
7986;BME280;4038;42.612;23.066;2023-11-21T13:40:15;92441.31;;;26.40;nan
7986;BME280;4038;42.612;23.066;2023-11-21T13:42:44;92436.53;;;25.71;nan
7986;BME280;4038;42.612;23.066;2023-11-21T13:45:11;92427.50;;;24.60;nan
7986;BME280;4038;42.612;23.066;2023-11-21T13:47:38;92432.38;;;23.74;nan